createdAt,value
2022-12-29T00:00:53.587Z,13.44
2022-12-29T00:03:56.128Z,13.45
2022-12-29T00:06:58.675Z,13.54
2022-12-29T00:10:00.866Z,13.53
2022-12-29T00:13:21.549Z,13.67
2022-12-29T00:16:24.005Z,13.52
2022-12-29T00:19:55.470Z,13.54
2022-12-29T00:23:17.077Z,13.38
2022-12-29T00:26:39.180Z,13.42
2022-12-29T00:30:00.128Z,13.36
2022-12-29T00:33:20.484Z,13.45
2022-12-29T00:36:37.058Z,13.50
2022-12-29T00:39:59.797Z,13.39
2022-12-29T00:43:20.353Z,13.35
2022-12-29T00:46:22.476Z,13.29
2022-12-29T00:49:34.472Z,13.44
2022-12-29T00:52:36.835Z,13.15
2022-12-29T00:55:39.564Z,13.18
2022-12-29T00:58:41.715Z,13.02
2022-12-29T01:01:47.371Z,13.19
2022-12-29T01:04:50.988Z,13.14
2022-12-29T01:07:53.028Z,13.18
2022-12-29T01:11:12.365Z,13.35
2022-12-29T01:14:14.732Z,13.19
2022-12-29T01:17:16.961Z,13.30
2022-12-29T01:20:19.307Z,13.27
2022-12-29T01:23:21.382Z,13.32
2022-12-29T01:26:23.496Z,13.23
2022-12-29T01:29:27.669Z,13.22
2022-12-29T01:32:29.734Z,13.21
2022-12-29T01:35:32.815Z,13.31
2022-12-29T01:38:37.189Z,13.26
2022-12-29T01:41:42.419Z,12.99
2022-12-29T01:44:59.445Z,12.81
2022-12-29T01:48:06.392Z,12.86
2022-12-29T01:51:08.710Z,12.73
2022-12-29T01:54:20.931Z,12.82
2022-12-29T01:57:29.440Z,12.82
2022-12-29T02:00:31.839Z,12.90
2022-12-29T02:03:35.559Z,12.74
2022-12-29T02:06:53.098Z,12.91
2022-12-29T02:09:57.194Z,12.98
2022-12-29T02:13:00.340Z,13.00
2022-12-29T02:16:02.489Z,13.07
2022-12-29T02:19:50.402Z,13.00
2022-12-29T02:23:17.261Z,12.90
2022-12-29T02:26:26.074Z,12.93
2022-12-29T02:29:41.335Z,12.70
2022-12-29T02:32:52.673Z,12.57
2022-12-29T02:36:09.063Z,12.49
2022-12-29T02:39:33.130Z,12.53
2022-12-29T02:42:54.690Z,12.72
2022-12-29T02:46:05.918Z,12.57
2022-12-29T02:49:16.464Z,12.70
2022-12-29T02:52:29.399Z,12.53
2022-12-29T02:55:31.454Z,12.67
2022-12-29T02:58:33.848Z,12.73
2022-12-29T03:02:13.435Z,12.76
2022-12-29T03:05:42.675Z,12.76
2022-12-29T03:08:53.665Z,12.74
2022-12-29T03:12:15.728Z,12.65
2022-12-29T03:16:01.392Z,12.74
2022-12-29T03:19:20.480Z,12.30
2022-12-29T03:22:32.585Z,12.39
2022-12-29T03:25:46.987Z,12.54
2022-12-29T03:28:54.298Z,12.41
2022-12-29T03:32:01.255Z,12.37
2022-12-29T03:35:05.312Z,12.35
2022-12-29T03:38:34.857Z,12.37
2022-12-29T03:41:38.099Z,12.47
2022-12-29T03:44:42.591Z,12.57
2022-12-29T03:47:46.021Z,12.69
2022-12-29T03:50:48.752Z,12.72
2022-12-29T03:53:51.417Z,12.53
2022-12-29T03:56:53.524Z,12.55
2022-12-29T04:00:07.995Z,12.44
2022-12-29T04:03:19.631Z,12.62
2022-12-29T04:06:23.250Z,12.23
2022-12-29T04:09:32.436Z,12.17
2022-12-29T04:12:35.142Z,12.25
2022-12-29T04:15:38.215Z,12.27
2022-12-29T04:18:40.495Z,12.37
2022-12-29T04:21:42.937Z,12.40
2022-12-29T04:24:45.248Z,12.25
2022-12-29T04:27:47.895Z,12.33
2022-12-29T04:31:08.789Z,12.42
2022-12-29T04:34:14.617Z,12.53
2022-12-29T04:37:16.818Z,12.42
2022-12-29T04:40:19.621Z,12.42
2022-12-29T04:43:23.199Z,12.42
2022-12-29T04:46:48.121Z,12.36
2022-12-29T04:50:05.742Z,12.52
2022-12-29T04:53:18.020Z,12.46
2022-12-29T04:56:21.367Z,12.20
2022-12-29T04:59:24.168Z,12.15
2022-12-29T05:02:29.942Z,12.06
2022-12-29T05:05:32.700Z,12.25
2022-12-29T05:08:35.700Z,12.11
2022-12-29T05:11:38.989Z,12.19
2022-12-29T05:14:41.570Z,12.35
2022-12-29T05:17:43.726Z,12.39
2022-12-29T05:20:48.415Z,12.49
2022-12-29T05:23:50.932Z,12.44
2022-12-29T05:26:53.433Z,12.50
2022-12-29T05:30:15.030Z,12.46
2022-12-29T05:33:18.662Z,12.44
2022-12-29T05:36:21.067Z,12.39
2022-12-29T05:39:33.583Z,11.79
2022-12-29T05:42:38.605Z,11.71
2022-12-29T05:45:51.299Z,13.18
2022-12-29T05:49:20.381Z,13.33
2022-12-29T05:52:32.762Z,12.78
2022-12-29T05:55:36.131Z,13.48
2022-12-29T05:58:38.548Z,14.21
2022-12-29T06:01:41.569Z,14.79
2022-12-29T06:04:43.797Z,14.85
2022-12-29T06:07:46.954Z,15.76
2022-12-29T06:10:51.766Z,16.96
2022-12-29T06:13:54.184Z,15.82
2022-12-29T06:16:56.433Z,16.40
2022-12-29T06:19:59.781Z,16.30
2022-12-29T06:23:02.131Z,15.68
2022-12-29T06:26:05.398Z,16.27
2022-12-29T06:29:09.740Z,16.18
2022-12-29T06:32:12.317Z,15.97
2022-12-29T06:35:19.651Z,16.64
2022-12-29T06:38:26.999Z,16.44
2022-12-29T06:41:32.328Z,16.18
2022-12-29T06:44:49.480Z,16.42
2022-12-29T06:47:51.539Z,16.94
2022-12-29T06:50:54.789Z,16.34
2022-12-29T06:53:57.202Z,16.97
2022-12-29T06:57:00.586Z,16.58
2022-12-29T07:00:04.268Z,16.50
2022-12-29T07:03:06.590Z,17.13
2022-12-29T07:06:08.729Z,16.71
2022-12-29T07:09:11.308Z,16.47
2022-12-29T07:12:13.488Z,17.46
2022-12-29T07:15:16.343Z,17.39
2022-12-29T07:18:18.591Z,17.08
2022-12-29T07:21:20.927Z,17.58
2022-12-29T07:24:23.055Z,17.46
2022-12-29T07:27:25.063Z,16.89
2022-12-29T07:30:27.666Z,17.35
2022-12-29T07:33:30.795Z,17.68
2022-12-29T07:36:34.881Z,17.23
2022-12-29T07:39:37.064Z,17.81
2022-12-29T07:42:39.430Z,18.10
2022-12-29T07:45:44.234Z,17.48
2022-12-29T07:48:46.392Z,18.31
2022-12-29T07:51:51.068Z,17.83
2022-12-29T07:54:53.493Z,17.40
2022-12-29T07:57:56.467Z,18.22
2022-12-29T08:00:58.918Z,18.02
2022-12-29T08:04:01.298Z,17.65
2022-12-29T08:07:04.187Z,18.27
2022-12-29T08:10:07.007Z,17.71
2022-12-29T08:13:09.198Z,17.76
2022-12-29T08:16:11.407Z,18.72
2022-12-29T08:19:19.905Z,18.07
2022-12-29T08:22:22.077Z,18.15
2022-12-29T08:25:24.277Z,18.61
2022-12-29T08:28:26.972Z,18.55
2022-12-29T08:31:29.689Z,18.31
2022-12-29T08:34:32.960Z,18.12
2022-12-29T08:37:35.216Z,18.24
2022-12-29T08:40:37.603Z,18.25
2022-12-29T08:43:39.925Z,18.04
2022-12-29T08:46:42.305Z,17.89
2022-12-29T08:49:44.373Z,17.73
2022-12-29T08:52:46.559Z,17.65
2022-12-29T08:56:04.024Z,17.45
2022-12-29T08:59:11.893Z,17.16
2022-12-29T09:02:20.325Z,17.23
2022-12-29T09:05:26.609Z,17.19
2022-12-29T09:08:29.056Z,17.75
2022-12-29T09:11:31.277Z,17.83
2022-12-29T09:14:33.544Z,18.08
2022-12-29T09:17:45.682Z,18.07
2022-12-29T09:20:48.606Z,18.10
2022-12-29T09:23:51.549Z,17.85
2022-12-29T09:26:53.476Z,18.05
2022-12-29T09:29:55.549Z,18.14
2022-12-29T09:32:58.340Z,18.28
2022-12-29T09:36:00.593Z,18.20
2022-12-29T09:39:02.665Z,18.00
2022-12-29T09:42:10.368Z,17.87
2022-12-29T09:45:20.162Z,17.99
2022-12-29T09:48:28.541Z,18.43
2022-12-29T09:51:32.637Z,18.37
2022-12-29T09:54:43.470Z,18.17
2022-12-29T09:58:12.425Z,18.46
2022-12-29T10:01:35.454Z,18.24
2022-12-29T10:04:45.448Z,18.04
2022-12-29T10:08:15.679Z,18.04
2022-12-29T10:11:19.490Z,18.08
2022-12-29T10:14:38.388Z,17.87
2022-12-29T10:27:15.021Z,17.44
2022-12-29T10:30:17.527Z,17.33
2022-12-29T10:33:37.591Z,17.36
2022-12-29T10:36:50.538Z,17.23
2022-12-29T10:39:54.521Z,17.29
2022-12-29T10:47:32.363Z,16.94
2022-12-29T10:50:35.060Z,16.80
2022-12-29T10:53:46.408Z,16.75
2022-12-29T10:57:26.970Z,16.83
2022-12-29T11:00:31.170Z,16.75
2022-12-29T11:03:38.913Z,16.89
2022-12-29T11:11:33.403Z,16.70
2022-12-29T11:18:14.536Z,16.66
2022-12-29T11:21:31.951Z,16.64
2022-12-29T11:24:34.947Z,16.79
2022-12-29T11:27:37.027Z,16.69
2022-12-29T11:30:39.559Z,16.68
2022-12-29T11:33:41.909Z,16.53
2022-12-29T11:36:44.090Z,16.39
2022-12-29T11:39:58.748Z,16.63
2022-12-29T11:43:05.873Z,16.79
2022-12-29T11:46:14.918Z,16.79
2022-12-29T11:49:24.940Z,16.81
2022-12-29T11:52:34.300Z,16.68
2022-12-29T11:55:36.417Z,16.51
2022-12-29T11:58:39.804Z,16.59
2022-12-29T12:01:44.323Z,16.40
2022-12-29T12:04:50.431Z,16.52
2022-12-29T12:08:11.709Z,16.54
2022-12-29T12:11:25.470Z,16.49
2022-12-29T12:14:44.946Z,16.60
2022-12-29T12:18:33.423Z,16.59
2022-12-29T12:21:46.039Z,16.57
2022-12-29T12:25:13.917Z,16.42
2022-12-29T12:28:27.072Z,16.44
2022-12-29T12:31:43.337Z,16.47
2022-12-29T12:34:48.783Z,16.41
2022-12-29T12:38:19.846Z,16.53
2022-12-29T12:41:47.493Z,16.47
2022-12-29T12:45:13.203Z,16.61
2022-12-29T12:48:42.450Z,16.57
2022-12-29T12:52:08.912Z,16.48
2022-12-29T12:55:35.232Z,16.37
2022-12-29T12:58:58.258Z,16.45
2022-12-29T13:02:22.228Z,16.29
2022-12-29T13:05:36.492Z,16.34
2022-12-29T13:09:12.482Z,16.23
2022-12-29T13:12:20.292Z,16.19
2022-12-29T13:15:45.363Z,16.09
2022-12-29T13:19:11.472Z,16.10
2022-12-29T13:22:40.050Z,16.11
2022-12-29T13:25:54.746Z,16.08
2022-12-29T13:29:18.544Z,16.02
2022-12-29T13:32:33.730Z,15.91
2022-12-29T13:35:47.028Z,15.97
2022-12-29T13:38:57.218Z,15.88
2022-12-29T13:42:01.674Z,15.76
2022-12-29T13:45:08.212Z,15.73
2022-12-29T13:48:26.492Z,15.66
2022-12-29T13:51:30.209Z,15.67
2022-12-29T13:54:32.488Z,15.66
2022-12-29T13:58:00.983Z,16.11
2022-12-29T14:01:39.257Z,16.39
2022-12-29T14:05:01.738Z,16.84
2022-12-29T14:08:07.563Z,17.19
2022-12-29T14:11:15.489Z,17.37
2022-12-29T14:14:22.669Z,17.34
2022-12-29T14:17:25.058Z,17.53
2022-12-29T14:20:27.436Z,17.07
2022-12-29T14:23:37.260Z,16.89
2022-12-29T14:26:39.327Z,16.65
2022-12-29T14:29:47.241Z,16.61
2022-12-29T14:33:14.233Z,16.39
2022-12-29T14:36:20.706Z,16.20
2022-12-29T14:39:34.620Z,16.12
2022-12-29T14:42:41.533Z,16.00
2022-12-29T14:45:44.108Z,15.87
2022-12-29T14:48:46.447Z,15.93
2022-12-29T14:51:50.107Z,15.72
2022-12-29T14:55:19.004Z,15.63
2022-12-29T14:58:58.389Z,15.45
2022-12-29T15:02:07.385Z,15.33
2022-12-29T15:05:29.365Z,15.15
2022-12-29T15:08:39.951Z,15.31
2022-12-29T15:11:45.214Z,14.99
2022-12-29T15:14:58.067Z,15.05
2022-12-29T15:18:15.540Z,14.96
2022-12-29T15:21:26.291Z,14.84
2022-12-29T15:24:37.965Z,14.77
2022-12-29T15:31:06.987Z,14.72
2022-12-29T15:34:14.828Z,15.02
2022-12-29T15:37:24.864Z,14.99
2022-12-29T15:40:32.638Z,15.74
2022-12-29T15:43:49.878Z,15.74
2022-12-29T15:46:53.240Z,15.76
2022-12-29T15:50:36.513Z,15.05
2022-12-29T15:53:39.116Z,14.75
2022-12-29T15:56:42.346Z,14.48
2022-12-29T15:59:52.291Z,14.52
2022-12-29T16:02:56.681Z,14.49
2022-12-29T16:06:12.334Z,15.79
2022-12-29T16:09:20.234Z,17.79
2022-12-29T16:12:28.223Z,19.07
2022-12-29T16:15:30.739Z,19.12
2022-12-29T16:18:38.751Z,18.74
2022-12-29T16:21:43.851Z,18.49
2022-12-29T16:24:47.310Z,18.32
2022-12-29T16:27:50.552Z,18.18
2022-12-29T16:31:25.793Z,18.57
2022-12-29T16:34:46.296Z,20.30
2022-12-29T16:37:49.070Z,22.06
2022-12-29T16:41:04.827Z,22.52
2022-12-29T16:44:30.579Z,21.92
2022-12-29T16:47:32.659Z,21.59
2022-12-29T16:50:38.827Z,22.79
2022-12-29T16:53:43.099Z,22.47
2022-12-29T16:56:47.112Z,20.79
2022-12-29T16:59:52.909Z,20.01
2022-12-29T17:02:58.513Z,19.91
2022-12-29T17:06:00.757Z,19.29
2022-12-29T17:09:27.784Z,19.06
2022-12-29T17:12:33.521Z,18.71
2022-12-29T17:15:36.638Z,18.53
2022-12-29T17:22:26.186Z,18.22
2022-12-29T17:25:49.429Z,18.01
2022-12-29T17:29:07.992Z,18.49
2022-12-29T17:32:17.753Z,18.75
2022-12-29T17:35:22.248Z,19.83
2022-12-29T17:38:48.998Z,18.98
2022-12-29T17:41:53.864Z,18.90
2022-12-29T17:48:40.242Z,20.13
2022-12-29T17:53:00.833Z,18.99
2022-12-29T18:05:43.322Z,20.37
2022-12-29T18:09:50.456Z,20.90
2022-12-29T18:13:15.816Z,19.08
2022-12-29T18:17:26.334Z,19.91
2022-12-29T18:20:30.749Z,21.28
2022-12-29T18:23:37.040Z,19.93
2022-12-29T18:26:49.089Z,19.65
2022-12-29T18:33:58.924Z,19.46
2022-12-29T18:37:03.085Z,19.35
2022-12-29T18:40:05.902Z,19.77
2022-12-29T18:43:55.213Z,19.22
2022-12-29T18:46:57.923Z,18.73
2022-12-29T18:50:00.000Z,18.58
2022-12-29T18:53:04.133Z,18.79
2022-12-29T18:56:07.703Z,19.06
2022-12-29T18:59:09.815Z,18.74
2022-12-29T19:02:17.799Z,18.66
2022-12-29T19:05:26.019Z,18.54
2022-12-29T19:08:28.247Z,18.28
2022-12-29T19:11:30.342Z,18.03
2022-12-29T19:14:32.551Z,17.99
2022-12-29T19:17:37.261Z,17.73
2022-12-29T19:20:42.868Z,17.57
2022-12-29T19:23:45.254Z,17.45
2022-12-29T19:26:49.603Z,17.10
2022-12-29T19:29:51.616Z,17.02
2022-12-29T19:32:57.865Z,16.95
2022-12-29T19:36:02.602Z,16.77
2022-12-29T19:39:04.881Z,16.64
2022-12-29T19:42:09.441Z,16.48
2022-12-29T19:45:12.109Z,16.36
2022-12-29T19:48:19.146Z,16.38
2022-12-29T19:51:25.606Z,16.36
2022-12-29T19:54:30.111Z,16.34
2022-12-29T19:57:32.687Z,16.24
2022-12-29T20:00:34.883Z,16.38
2022-12-29T20:03:39.618Z,16.30
2022-12-29T20:06:44.118Z,16.15
2022-12-29T20:09:47.755Z,16.08
2022-12-29T20:12:50.350Z,15.88
2022-12-29T20:15:58.241Z,15.94
2022-12-29T20:19:00.376Z,15.68
2022-12-29T20:22:06.744Z,15.68
2022-12-29T20:25:43.622Z,15.62
2022-12-29T20:28:33.037Z,15.60
2022-12-29T20:31:39.022Z,15.58
2022-12-29T20:34:43.166Z,15.66
2022-12-29T20:37:45.219Z,15.53
2022-12-29T20:40:47.275Z,15.20
2022-12-29T20:43:50.044Z,15.39
2022-12-29T20:46:52.602Z,15.29
2022-12-29T20:49:57.022Z,15.37
2022-12-29T20:52:59.933Z,15.44
2022-12-29T20:56:05.257Z,15.78
2022-12-29T20:59:26.834Z,15.70
2022-12-29T21:02:36.863Z,15.66
2022-12-29T21:05:41.185Z,15.62
2022-12-29T21:09:10.985Z,15.62
2022-12-29T21:12:24.395Z,15.50
2022-12-29T21:20:25.019Z,15.57
2022-12-29T21:23:29.144Z,15.43
2022-12-29T21:26:36.098Z,15.51
2022-12-29T21:29:45.237Z,15.35
2022-12-29T21:32:49.485Z,15.38
2022-12-29T21:36:09.342Z,15.35
2022-12-29T21:39:13.733Z,15.47
2022-12-29T21:42:18.588Z,15.30
2022-12-29T21:45:26.775Z,15.25
2022-12-29T21:48:30.318Z,15.15
2022-12-29T21:51:54.141Z,15.30
2022-12-29T21:55:40.694Z,15.46
2022-12-29T21:59:04.365Z,15.53
2022-12-29T22:02:38.941Z,15.44
2022-12-29T22:06:03.174Z,15.43
2022-12-29T22:09:23.404Z,15.52
2022-12-29T22:12:46.605Z,15.25
2022-12-29T22:15:53.627Z,15.40
2022-12-29T22:19:04.603Z,15.44
2022-12-29T22:22:09.171Z,15.38
2022-12-29T22:25:11.408Z,15.36
2022-12-29T22:28:13.474Z,15.26
2022-12-29T22:31:45.556Z,15.22
2022-12-29T22:34:51.044Z,15.16
2022-12-29T22:37:53.454Z,15.15
2022-12-29T22:40:59.746Z,15.15
2022-12-29T22:44:02.217Z,15.21
2022-12-29T22:47:04.478Z,15.26
2022-12-29T22:50:06.972Z,15.18
2022-12-29T22:53:09.330Z,15.19
2022-12-29T22:56:14.288Z,15.22
2022-12-29T22:59:16.687Z,15.23
2022-12-29T23:02:19.376Z,15.07
2022-12-29T23:05:22.606Z,15.10
2022-12-29T23:08:25.258Z,15.12
2022-12-29T23:11:28.453Z,15.03
2022-12-29T23:14:30.793Z,14.95
2022-12-29T23:17:33.273Z,14.95
2022-12-29T23:20:37.933Z,14.92
2022-12-29T23:23:56.188Z,14.90
2022-12-29T23:26:58.368Z,14.83
2022-12-29T23:30:00.375Z,14.76
2022-12-29T23:33:02.645Z,14.72
2022-12-29T23:36:05.518Z,14.71
2022-12-29T23:39:11.056Z,14.64
2022-12-29T23:42:13.112Z,14.62
2022-12-29T23:45:15.394Z,14.53
2022-12-29T23:48:17.480Z,14.47
2022-12-29T23:51:19.837Z,14.52
2022-12-29T23:54:21.926Z,14.63
2022-12-29T23:57:24.010Z,14.49
